Airfield :
LOGIN :

Register | Disclaimer

   EN    FR    IT 

 










Legend :    VFR   Marginal VFR   IFR   Intensive IFR   Very Intensive IFR
Visi :
Ceiling :
>= 8 km
>= 3000ft
5 to 8 km
1000 to 3000 ft
1500m to 5 km
500 to 1000 ft
800 to 1500m
200 to 500 ft
< 800m
< 200 ft
Symbols :   Thunderstorms  Fog  Heavy snow  Heavy precipitations  Wind > 20 kt
SIGMETs :     Misc.  Thunderstorms  Icing  Turbulence  Mountain Waves  Volcanic Ashes






- Airport Elevation : 424 ft
- IATA code : QGY


LHPR - Györ Per

CURRENT METAR :
  • 290545Z AUTO VRB03KT CAVOK 11/09 Q1013 NOSIG

EXPIRED METARs :
  • 290515Z AUTO VRB03KT CAVOK 11/09 Q1013 NOSIG
  • 290445Z AUTO VRB03KT CAVOK 11/10 Q1013 NOSIG
  • 290415Z AUTO 12002KT CAVOK 10/09 Q1013 NOSIG
  • 290345Z AUTO 08003KT 060V150 CAVOK 08/07 Q1013
  • 290315Z AUTO VRB02KT 0700 R29/P1500 FG NCD 08/07 Q1014
  • 290245Z AUTO 00000KT CAVOK 08/07 Q1014

TAF TAF LHPR
Valid from the 29 at 06:00 until the 29 at 15:00 UTC


290515Z 2906/2915 09006KT CAVOK
BECMG 2910/2913 15011KT



MET'MAP, your aeronautical weather chart ! - Copyright ORBIFLY December 2007 - Disclaimer

ORBIFLY MET'MAP TEAM :

Programming & Development : Alexandra Zaïnal
Original concept : Baudouin d'Aumeries
Technical & hardware support : Manuel Goepfert
Assistance : Marc-Olivier Méhu

Contact : metmap@orbifly.com




SOURCES & CREDITS :

   NOAA